sensor_id;sensor_type;location;lat;lon;timestamp;P1;durP1;ratioP1;P2;durP2;ratioP2
60314;SDS011;46159;42.550;21.904;2024-03-02T00:00:55;43.30;;;30.88;;
60314;SDS011;46159;42.550;21.904;2024-03-02T00:03:24;44.03;;;32.35;;
60314;SDS011;46159;42.550;21.904;2024-03-02T00:05:51;36.83;;;27.58;;
60314;SDS011;46159;42.550;21.904;2024-03-02T00:08:24;39.22;;;26.75;;
60314;SDS011;46159;42.550;21.904;2024-03-02T00:10:52;38.70;;;27.42;;
60314;SDS011;46159;42.550;21.904;2024-03-02T00:13:31;44.88;;;31.50;;
60314;SDS011;46159;42.550;21.904;2024-03-02T00:16:00;41.53;;;30.67;;
60314;SDS011;46159;42.550;21.904;2024-03-02T00:18:30;42.05;;;29.38;;
60314;SDS011;46159;42.550;21.904;2024-03-02T00:20:57;39.60;;;29.58;;
60314;SDS011;46159;42.550;21.904;2024-03-02T00:23:27;41.75;;;28.98;;
60314;SDS011;46159;42.550;21.904;2024-03-02T00:25:56;41.88;;;28.45;;
60314;SDS011;46159;42.550;21.904;2024-03-02T00:28:27;40.80;;;27.92;;
60314;SDS011;46159;42.550;21.904;2024-03-02T00:33:41;34.55;;;24.27;;
60314;SDS011;46159;42.550;21.904;2024-03-02T00:36:12;23.73;;;17.80;;
60314;SDS011;46159;42.550;21.904;2024-03-02T00:38:56;24.75;;;18.83;;
60314;SDS011;46159;42.550;21.904;2024-03-02T00:46:39;26.40;;;20.23;;
60314;SDS011;46159;42.550;21.904;2024-03-02T00:51:36;29.67;;;21.75;;
60314;SDS011;46159;42.550;21.904;2024-03-02T00:54:07;31.40;;;21.80;;
60314;SDS011;46159;42.550;21.904;2024-03-02T00:56:33;34.13;;;23.02;;
60314;SDS011;46159;42.550;21.904;2024-03-02T00:59:03;28.35;;;21.05;;
60314;SDS011;46159;42.550;21.904;2024-03-02T01:01:29;25.85;;;19.70;;
60314;SDS011;46159;42.550;21.904;2024-03-02T01:03:56;28.70;;;20.23;;
60314;SDS011;46159;42.550;21.904;2024-03-02T01:06:25;29.30;;;20.65;;
60314;SDS011;46159;42.550;21.904;2024-03-02T01:08:52;30.75;;;22.42;;
60314;SDS011;46159;42.550;21.904;2024-03-02T01:11:22;41.67;;;30.20;;
60314;SDS011;46159;42.550;21.904;2024-03-02T01:13:49;28.35;;;21.60;;
60314;SDS011;46159;42.550;21.904;2024-03-02T01:16:15;29.25;;;17.77;;
60314;SDS011;46159;42.550;21.904;2024-03-02T01:18:41;21.13;;;15.32;;
60314;SDS011;46159;42.550;21.904;2024-03-02T01:21:09;19.80;;;15.10;;
60314;SDS011;46159;42.550;21.904;2024-03-02T01:23:38;24.55;;;18.60;;
60314;SDS011;46159;42.550;21.904;2024-03-02T01:26:04;31.15;;;22.95;;
60314;SDS011;46159;42.550;21.904;2024-03-02T01:28:33;35.17;;;26.10;;
60314;SDS011;46159;42.550;21.904;2024-03-02T01:31:00;33.45;;;26.73;;
60314;SDS011;46159;42.550;21.904;2024-03-02T01:33:30;30.60;;;24.02;;
60314;SDS011;46159;42.550;21.904;2024-03-02T01:35:57;31.75;;;25.02;;
60314;SDS011;46159;42.550;21.904;2024-03-02T01:38:23;26.77;;;22.02;;
60314;SDS011;46159;42.550;21.904;2024-03-02T01:40:49;33.33;;;25.40;;
60314;SDS011;46159;42.550;21.904;2024-03-02T01:43:20;32.47;;;24.77;;
60314;SDS011;46159;42.550;21.904;2024-03-02T01:45:46;34.85;;;26.58;;
60314;SDS011;46159;42.550;21.904;2024-03-02T01:48:13;37.65;;;26.38;;
60314;SDS011;46159;42.550;21.904;2024-03-02T01:50:40;37.05;;;27.67;;
60314;SDS011;46159;42.550;21.904;2024-03-02T01:53:06;37.33;;;28.15;;
60314;SDS011;46159;42.550;21.904;2024-03-02T01:55:36;36.95;;;26.70;;
60314;SDS011;46159;42.550;21.904;2024-03-02T01:58:02;36.53;;;27.52;;
60314;SDS011;46159;42.550;21.904;2024-03-02T02:00:29;37.22;;;26.92;;
60314;SDS011;46159;42.550;21.904;2024-03-02T02:02:55;34.78;;;27.15;;
60314;SDS011;46159;42.550;21.904;2024-03-02T02:05:25;31.60;;;25.00;;
60314;SDS011;46159;42.550;21.904;2024-03-02T02:07:51;37.80;;;28.45;;
60314;SDS011;46159;42.550;21.904;2024-03-02T02:10:19;44.25;;;34.03;;
60314;SDS011;46159;42.550;21.904;2024-03-02T02:12:45;39.53;;;31.25;;
60314;SDS011;46159;42.550;21.904;2024-03-02T02:18:11;38.97;;;29.25;;
60314;SDS011;46159;42.550;21.904;2024-03-02T02:20:39;33.10;;;27.27;;
60314;SDS011;46159;42.550;21.904;2024-03-02T02:23:05;29.13;;;24.38;;
60314;SDS011;46159;42.550;21.904;2024-03-02T02:25:33;27.35;;;21.25;;
60314;SDS011;46159;42.550;21.904;2024-03-02T02:27:59;24.13;;;20.63;;
60314;SDS011;46159;42.550;21.904;2024-03-02T02:30:26;24.30;;;19.52;;
60314;SDS011;46159;42.550;21.904;2024-03-02T02:32:53;22.33;;;16.23;;
60314;SDS011;46159;42.550;21.904;2024-03-02T02:35:19;16.75;;;14.32;;
60314;SDS011;46159;42.550;21.904;2024-03-02T02:37:45;16.45;;;12.90;;
60314;SDS011;46159;42.550;21.904;2024-03-02T02:40:12;18.15;;;12.80;;
60314;SDS011;46159;42.550;21.904;2024-03-02T02:42:39;17.30;;;13.48;;
60314;SDS011;46159;42.550;21.904;2024-03-02T02:45:06;17.75;;;14.45;;
60314;SDS011;46159;42.550;21.904;2024-03-02T02:47:33;16.75;;;13.73;;
60314;SDS011;46159;42.550;21.904;2024-03-02T02:50:03;19.58;;;14.45;;
60314;SDS011;46159;42.550;21.904;2024-03-02T02:52:36;15.95;;;11.75;;
60314;SDS011;46159;42.550;21.904;2024-03-02T02:55:05;12.48;;;9.38;;
60314;SDS011;46159;42.550;21.904;2024-03-02T02:57:39;16.30;;;11.77;;
60314;SDS011;46159;42.550;21.904;2024-03-02T03:00:09;22.02;;;18.92;;
60314;SDS011;46159;42.550;21.904;2024-03-02T03:02:39;14.30;;;11.02;;
60314;SDS011;46159;42.550;21.904;2024-03-02T03:05:11;11.82;;;9.48;;
60314;SDS011;46159;42.550;21.904;2024-03-02T03:07:39;14.00;;;10.18;;
60314;SDS011;46159;42.550;21.904;2024-03-02T03:10:05;14.65;;;10.38;;
60314;SDS011;46159;42.550;21.904;2024-03-02T03:12:33;16.02;;;12.70;;
60314;SDS011;46159;42.550;21.904;2024-03-02T03:15:00;18.50;;;14.52;;
60314;SDS011;46159;42.550;21.904;2024-03-02T03:17:26;20.45;;;16.65;;
60314;SDS011;46159;42.550;21.904;2024-03-02T03:19:56;19.77;;;15.10;;
60314;SDS011;46159;42.550;21.904;2024-03-02T03:22:22;15.13;;;11.82;;
60314;SDS011;46159;42.550;21.904;2024-03-02T03:24:48;14.38;;;9.60;;
60314;SDS011;46159;42.550;21.904;2024-03-02T03:27:14;12.73;;;9.68;;
60314;SDS011;46159;42.550;21.904;2024-03-02T03:29:40;15.35;;;11.38;;
60314;SDS011;46159;42.550;21.904;2024-03-02T03:32:07;14.73;;;10.30;;
60314;SDS011;46159;42.550;21.904;2024-03-02T03:34:33;13.43;;;10.05;;
60314;SDS011;46159;42.550;21.904;2024-03-02T03:37:00;13.80;;;10.90;;
60314;SDS011;46159;42.550;21.904;2024-03-02T03:39:26;16.88;;;12.45;;
60314;SDS011;46159;42.550;21.904;2024-03-02T03:41:53;15.70;;;10.68;;
60314;SDS011;46159;42.550;21.904;2024-03-02T03:44:21;13.32;;;9.55;;
60314;SDS011;46159;42.550;21.904;2024-03-02T03:46:47;15.93;;;10.90;;
60314;SDS011;46159;42.550;21.904;2024-03-02T03:49:13;27.00;;;19.52;;
60314;SDS011;46159;42.550;21.904;2024-03-02T03:51:40;30.58;;;22.70;;
60314;SDS011;46159;42.550;21.904;2024-03-02T03:54:06;24.52;;;19.42;;
60314;SDS011;46159;42.550;21.904;2024-03-02T03:56:33;25.67;;;19.83;;
60314;SDS011;46159;42.550;21.904;2024-03-02T03:59:00;28.67;;;21.15;;
60314;SDS011;46159;42.550;21.904;2024-03-02T04:01:26;32.83;;;24.80;;
60314;SDS011;46159;42.550;21.904;2024-03-02T04:03:54;32.05;;;25.00;;
60314;SDS011;46159;42.550;21.904;2024-03-02T04:06:20;30.63;;;22.67;;
60314;SDS011;46159;42.550;21.904;2024-03-02T04:08:47;28.30;;;21.83;;
60314;SDS011;46159;42.550;21.904;2024-03-02T04:11:13;25.00;;;19.50;;
60314;SDS011;46159;42.550;21.904;2024-03-02T04:13:39;21.38;;;17.55;;
60314;SDS011;46159;42.550;21.904;2024-03-02T04:16:07;23.67;;;18.20;;
60314;SDS011;46159;42.550;21.904;2024-03-02T04:18:33;21.02;;;17.25;;
60314;SDS011;46159;42.550;21.904;2024-03-02T04:21:00;19.90;;;16.73;;
60314;SDS011;46159;42.550;21.904;2024-03-02T04:23:27;19.52;;;15.73;;
60314;SDS011;46159;42.550;21.904;2024-03-02T04:25:53;19.80;;;16.63;;
60314;SDS011;46159;42.550;21.904;2024-03-02T04:28:19;20.35;;;15.82;;
60314;SDS011;46159;42.550;21.904;2024-03-02T04:30:46;25.38;;;18.00;;
60314;SDS011;46159;42.550;21.904;2024-03-02T04:33:12;30.00;;;21.08;;
60314;SDS011;46159;42.550;21.904;2024-03-02T04:35:38;26.55;;;18.58;;
60314;SDS011;46159;42.550;21.904;2024-03-02T04:38:06;26.35;;;19.17;;
60314;SDS011;46159;42.550;21.904;2024-03-02T04:40:32;28.10;;;20.85;;
60314;SDS011;46159;42.550;21.904;2024-03-02T04:42:58;23.60;;;18.15;;
60314;SDS011;46159;42.550;21.904;2024-03-02T04:45:24;27.48;;;20.80;;
60314;SDS011;46159;42.550;21.904;2024-03-02T04:47:51;25.20;;;21.48;;
60314;SDS011;46159;42.550;21.904;2024-03-02T04:50:18;23.42;;;18.45;;
60314;SDS011;46159;42.550;21.904;2024-03-02T04:52:45;21.58;;;18.00;;
60314;SDS011;46159;42.550;21.904;2024-03-02T04:55:11;20.70;;;16.95;;
60314;SDS011;46159;42.550;21.904;2024-03-02T04:57:40;23.05;;;18.60;;
60314;SDS011;46159;42.550;21.904;2024-03-02T05:00:08;21.08;;;16.73;;
60314;SDS011;46159;42.550;21.904;2024-03-02T05:02:34;21.15;;;16.35;;
60314;SDS011;46159;42.550;21.904;2024-03-02T05:05:00;23.92;;;20.08;;
60314;SDS011;46159;42.550;21.904;2024-03-02T05:07:28;24.17;;;17.70;;
60314;SDS011;46159;42.550;21.904;2024-03-02T05:09:55;20.13;;;14.80;;
60314;SDS011;46159;42.550;21.904;2024-03-02T05:12:21;21.00;;;14.00;;
60314;SDS011;46159;42.550;21.904;2024-03-02T05:15:06;16.95;;;12.90;;
60314;SDS011;46159;42.550;21.904;2024-03-02T05:17:34;19.20;;;12.98;;
60314;SDS011;46159;42.550;21.904;2024-03-02T05:20:02;16.70;;;12.65;;
60314;SDS011;46159;42.550;21.904;2024-03-02T05:22:30;19.23;;;15.43;;
60314;SDS011;46159;42.550;21.904;2024-03-02T05:24:56;25.55;;;20.25;;
60314;SDS011;46159;42.550;21.904;2024-03-02T05:27:24;24.98;;;20.20;;
60314;SDS011;46159;42.550;21.904;2024-03-02T05:29:50;37.95;;;27.95;;
60314;SDS011;46159;42.550;21.904;2024-03-02T05:32:17;119.47;;;65.55;;
60314;SDS011;46159;42.550;21.904;2024-03-02T05:34:43;171.43;;;94.13;;
60314;SDS011;46159;42.550;21.904;2024-03-02T05:37:09;173.40;;;107.35;;
60314;SDS011;46159;42.550;21.904;2024-03-02T05:39:36;101.10;;;68.72;;
60314;SDS011;46159;42.550;21.904;2024-03-02T05:42:02;75.93;;;51.38;;
60314;SDS011;46159;42.550;21.904;2024-03-02T05:44:28;44.80;;;33.45;;
60314;SDS011;46159;42.550;21.904;2024-03-02T05:46:55;34.28;;;26.25;;
60314;SDS011;46159;42.550;21.904;2024-03-02T05:49:23;32.83;;;25.13;;
60314;SDS011;46159;42.550;21.904;2024-03-02T05:51:49;34.53;;;26.05;;
60314;SDS011;46159;42.550;21.904;2024-03-02T05:54:15;31.08;;;24.63;;
60314;SDS011;46159;42.550;21.904;2024-03-02T05:56:42;30.73;;;22.80;;
60314;SDS011;46159;42.550;21.904;2024-03-02T05:59:09;58.70;;;36.70;;
60314;SDS011;46159;42.550;21.904;2024-03-02T06:04:09;52.50;;;35.60;;
60314;SDS011;46159;42.550;21.904;2024-03-02T06:06:39;51.20;;;34.88;;
60314;SDS011;46159;42.550;21.904;2024-03-02T06:09:05;50.47;;;37.08;;
60314;SDS011;46159;42.550;21.904;2024-03-02T06:11:34;47.90;;;35.20;;
60314;SDS011;46159;42.550;21.904;2024-03-02T06:14:01;50.35;;;36.22;;
60314;SDS011;46159;42.550;21.904;2024-03-02T06:16:29;49.45;;;36.55;;
60314;SDS011;46159;42.550;21.904;2024-03-02T06:18:56;49.75;;;36.28;;
60314;SDS011;46159;42.550;21.904;2024-03-02T06:21:25;46.67;;;33.75;;
60314;SDS011;46159;42.550;21.904;2024-03-02T06:23:52;42.58;;;33.05;;
60314;SDS011;46159;42.550;21.904;2024-03-02T06:26:19;44.03;;;32.58;;
60314;SDS011;46159;42.550;21.904;2024-03-02T06:28:46;45.25;;;33.28;;
60314;SDS011;46159;42.550;21.904;2024-03-02T06:31:12;43.45;;;32.58;;
60314;SDS011;46159;42.550;21.904;2024-03-02T06:33:39;35.03;;;27.42;;
60314;SDS011;46159;42.550;21.904;2024-03-02T06:36:06;31.65;;;24.13;;
60314;SDS011;46159;42.550;21.904;2024-03-02T06:38:37;34.92;;;27.98;;
60314;SDS011;46159;42.550;21.904;2024-03-02T06:41:05;31.15;;;23.95;;
60314;SDS011;46159;42.550;21.904;2024-03-02T06:43:32;28.75;;;24.42;;
60314;SDS011;46159;42.550;21.904;2024-03-02T06:45:58;36.47;;;27.83;;
60314;SDS011;46159;42.550;21.904;2024-03-02T06:48:24;38.67;;;30.75;;
60314;SDS011;46159;42.550;21.904;2024-03-02T06:50:50;41.55;;;32.50;;
60314;SDS011;46159;42.550;21.904;2024-03-02T06:53:18;44.90;;;34.35;;
60314;SDS011;46159;42.550;21.904;2024-03-02T06:55:45;47.30;;;35.92;;
60314;SDS011;46159;42.550;21.904;2024-03-02T06:58:13;61.72;;;47.67;;
60314;SDS011;46159;42.550;21.904;2024-03-02T07:00:42;52.78;;;40.45;;
60314;SDS011;46159;42.550;21.904;2024-03-02T07:03:09;50.75;;;39.33;;
60314;SDS011;46159;42.550;21.904;2024-03-02T07:05:35;46.72;;;37.83;;
60314;SDS011;46159;42.550;21.904;2024-03-02T07:08:02;46.45;;;37.20;;
60314;SDS011;46159;42.550;21.904;2024-03-02T07:10:30;43.75;;;34.67;;
60314;SDS011;46159;42.550;21.904;2024-03-02T07:12:58;38.50;;;31.80;;
60314;SDS011;46159;42.550;21.904;2024-03-02T07:15:24;28.98;;;22.80;;
60314;SDS011;46159;42.550;21.904;2024-03-02T07:18:04;23.77;;;20.77;;
60314;SDS011;46159;42.550;21.904;2024-03-02T07:20:30;21.95;;;18.60;;
60314;SDS011;46159;42.550;21.904;2024-03-02T07:22:56;22.17;;;17.88;;
60314;SDS011;46159;42.550;21.904;2024-03-02T07:25:26;20.75;;;15.82;;
60314;SDS011;46159;42.550;21.904;2024-03-02T07:27:52;22.15;;;17.88;;
60314;SDS011;46159;42.550;21.904;2024-03-02T07:30:18;23.52;;;19.48;;
60314;SDS011;46159;42.550;21.904;2024-03-02T07:32:46;22.95;;;18.83;;
60314;SDS011;46159;42.550;21.904;2024-03-02T07:35:12;26.77;;;22.25;;
60314;SDS011;46159;42.550;21.904;2024-03-02T07:37:43;25.77;;;21.75;;
60314;SDS011;46159;42.550;21.904;2024-03-02T07:40:11;29.42;;;20.55;;
60314;SDS011;46159;42.550;21.904;2024-03-02T07:42:40;23.35;;;19.83;;
60314;SDS011;46159;42.550;21.904;2024-03-02T07:45:07;22.55;;;19.73;;
60314;SDS011;46159;42.550;21.904;2024-03-02T07:47:34;24.98;;;20.60;;
60314;SDS011;46159;42.550;21.904;2024-03-02T07:50:00;21.73;;;16.48;;
60314;SDS011;46159;42.550;21.904;2024-03-02T07:52:27;24.70;;;19.60;;
60314;SDS011;46159;42.550;21.904;2024-03-02T07:54:55;26.65;;;21.10;;
60314;SDS011;46159;42.550;21.904;2024-03-02T07:57:24;21.80;;;18.90;;
60314;SDS011;46159;42.550;21.904;2024-03-02T07:59:52;25.38;;;19.80;;
60314;SDS011;46159;42.550;21.904;2024-03-02T08:02:18;30.13;;;23.30;;
60314;SDS011;46159;42.550;21.904;2024-03-02T08:04:45;22.60;;;18.58;;
60314;SDS011;46159;42.550;21.904;2024-03-02T08:07:13;23.50;;;19.77;;
60314;SDS011;46159;42.550;21.904;2024-03-02T08:09:39;21.85;;;17.98;;
60314;SDS011;46159;42.550;21.904;2024-03-02T08:12:06;20.98;;;15.77;;
60314;SDS011;46159;42.550;21.904;2024-03-02T08:14:32;14.98;;;12.05;;
60314;SDS011;46159;42.550;21.904;2024-03-02T08:17:15;12.48;;;9.32;;
60314;SDS011;46159;42.550;21.904;2024-03-02T08:19:43;13.32;;;9.48;;
60314;SDS011;46159;42.550;21.904;2024-03-02T08:22:10;14.90;;;11.43;;
60314;SDS011;46159;42.550;21.904;2024-03-02T08:24:37;16.88;;;13.57;;
60314;SDS011;46159;42.550;21.904;2024-03-02T08:27:04;23.92;;;20.30;;
60314;SDS011;46159;42.550;21.904;2024-03-02T08:29:31;37.60;;;29.52;;
60314;SDS011;46159;42.550;21.904;2024-03-02T08:31:57;33.65;;;27.88;;
60314;SDS011;46159;42.550;21.904;2024-03-02T08:34:25;31.42;;;25.40;;
60314;SDS011;46159;42.550;21.904;2024-03-02T08:36:51;36.40;;;29.23;;
60314;SDS011;46159;42.550;21.904;2024-03-02T08:39:18;30.25;;;23.75;;
60314;SDS011;46159;42.550;21.904;2024-03-02T08:41:45;25.83;;;20.20;;
60314;SDS011;46159;42.550;21.904;2024-03-02T08:44:12;16.33;;;11.73;;
60314;SDS011;46159;42.550;21.904;2024-03-02T08:46:39;40.50;;;28.63;;
60314;SDS011;46159;42.550;21.904;2024-03-02T08:49:07;17.20;;;13.20;;
60314;SDS011;46159;42.550;21.904;2024-03-02T08:51:34;14.30;;;11.00;;
60314;SDS011;46159;42.550;21.904;2024-03-02T08:54:00;27.85;;;19.40;;
60314;SDS011;46159;42.550;21.904;2024-03-02T08:56:29;22.33;;;14.35;;
60314;SDS011;46159;42.550;21.904;2024-03-02T09:01:47;14.18;;;9.70;;
60314;SDS011;46159;42.550;21.904;2024-03-02T09:04:28;14.63;;;9.20;;
60314;SDS011;46159;42.550;21.904;2024-03-02T09:06:58;15.38;;;8.32;;
60314;SDS011;46159;42.550;21.904;2024-03-02T09:12:28;24.02;;;11.90;;
60314;SDS011;46159;42.550;21.904;2024-03-02T09:14:54;14.25;;;10.45;;
60314;SDS011;46159;42.550;21.904;2024-03-02T09:17:21;14.50;;;8.13;;
60314;SDS011;46159;42.550;21.904;2024-03-02T09:19:47;25.23;;;15.80;;
60314;SDS011;46159;42.550;21.904;2024-03-02T09:22:18;16.30;;;8.35;;
60314;SDS011;46159;42.550;21.904;2024-03-02T09:24:44;18.15;;;10.10;;
60314;SDS011;46159;42.550;21.904;2024-03-02T09:27:11;16.98;;;6.32;;
60314;SDS011;46159;42.550;21.904;2024-03-02T09:29:37;11.02;;;6.63;;
60314;SDS011;46159;42.550;21.904;2024-03-02T09:32:04;11.35;;;5.63;;
60314;SDS011;46159;42.550;21.904;2024-03-02T09:34:31;10.57;;;4.50;;
60314;SDS011;46159;42.550;21.904;2024-03-02T09:36:57;10.63;;;4.28;;
60314;SDS011;46159;42.550;21.904;2024-03-02T09:39:27;14.63;;;7.22;;
60314;SDS011;46159;42.550;21.904;2024-03-02T09:41:54;9.82;;;4.65;;
60314;SDS011;46159;42.550;21.904;2024-03-02T09:44:20;17.55;;;6.90;;
60314;SDS011;46159;42.550;21.904;2024-03-02T09:46:50;25.17;;;7.13;;
60314;SDS011;46159;42.550;21.904;2024-03-02T09:52:21;14.65;;;6.65;;
60314;SDS011;46159;42.550;21.904;2024-03-02T09:54:48;11.23;;;4.78;;
60314;SDS011;46159;42.550;21.904;2024-03-02T09:57:15;10.38;;;5.00;;
60314;SDS011;46159;42.550;21.904;2024-03-02T09:59:41;15.43;;;6.32;;
60314;SDS011;46159;42.550;21.904;2024-03-02T10:02:10;15.18;;;8.05;;
60314;SDS011;46159;42.550;21.904;2024-03-02T10:04:36;12.13;;;7.68;;
60314;SDS011;46159;42.550;21.904;2024-03-02T10:07:09;8.27;;;3.70;;
60314;SDS011;46159;42.550;21.904;2024-03-02T10:12:05;9.95;;;3.70;;
60314;SDS011;46159;42.550;21.904;2024-03-02T10:14:32;15.02;;;4.07;;
60314;SDS011;46159;42.550;21.904;2024-03-02T10:17:04;10.52;;;4.78;;
60314;SDS011;46159;42.550;21.904;2024-03-02T10:19:30;14.35;;;6.10;;
60314;SDS011;46159;42.550;21.904;2024-03-02T10:22:00;9.70;;;4.25;;
60314;SDS011;46159;42.550;21.904;2024-03-02T10:24:39;9.13;;;3.15;;
60314;SDS011;46159;42.550;21.904;2024-03-02T10:27:07;10.07;;;5.07;;
60314;SDS011;46159;42.550;21.904;2024-03-02T10:29:36;14.63;;;6.57;;
60314;SDS011;46159;42.550;21.904;2024-03-02T10:32:09;16.88;;;4.72;;
60314;SDS011;46159;42.550;21.904;2024-03-02T10:34:37;11.73;;;5.65;;
60314;SDS011;46159;42.550;21.904;2024-03-02T10:37:05;10.38;;;5.90;;
60314;SDS011;46159;42.550;21.904;2024-03-02T10:39:33;16.40;;;6.05;;
60314;SDS011;46159;42.550;21.904;2024-03-02T10:42:16;12.77;;;5.55;;
60314;SDS011;46159;42.550;21.904;2024-03-02T10:44:51;12.40;;;4.82;;
60314;SDS011;46159;42.550;21.904;2024-03-02T10:47:20;8.50;;;3.90;;
60314;SDS011;46159;42.550;21.904;2024-03-02T10:49:49;10.90;;;4.97;;
60314;SDS011;46159;42.550;21.904;2024-03-02T10:52:30;14.60;;;5.15;;
60314;SDS011;46159;42.550;21.904;2024-03-02T10:55:02;11.82;;;4.38;;
60314;SDS011;46159;42.550;21.904;2024-03-02T10:57:42;12.40;;;5.55;;
60314;SDS011;46159;42.550;21.904;2024-03-02T11:00:11;17.30;;;5.72;;
60314;SDS011;46159;42.550;21.904;2024-03-02T11:02:55;15.13;;;5.20;;
60314;SDS011;46159;42.550;21.904;2024-03-02T11:05:28;17.45;;;6.20;;
60314;SDS011;46159;42.550;21.904;2024-03-02T11:08:01;17.33;;;6.70;;
60314;SDS011;46159;42.550;21.904;2024-03-02T11:10:36;12.60;;;4.97;;
60314;SDS011;46159;42.550;21.904;2024-03-02T11:13:08;12.35;;;4.93;;
60314;SDS011;46159;42.550;21.904;2024-03-02T11:15:35;23.10;;;7.35;;
60314;SDS011;46159;42.550;21.904;2024-03-02T11:18:16;16.20;;;6.75;;
60314;SDS011;46159;42.550;21.904;2024-03-02T11:20:43;12.23;;;5.80;;
60314;SDS011;46159;42.550;21.904;2024-03-02T11:23:10;14.20;;;6.05;;
60314;SDS011;46159;42.550;21.904;2024-03-02T11:25:36;15.85;;;6.60;;
60314;SDS011;46159;42.550;21.904;2024-03-02T11:28:06;18.17;;;6.82;;
60314;SDS011;46159;42.550;21.904;2024-03-02T11:35:47;19.33;;;5.90;;
60314;SDS011;46159;42.550;21.904;2024-03-02T11:38:14;13.82;;;6.72;;
60314;SDS011;46159;42.550;21.904;2024-03-02T11:40:41;13.80;;;5.32;;
60314;SDS011;46159;42.550;21.904;2024-03-02T11:43:07;17.05;;;6.75;;
60314;SDS011;46159;42.550;21.904;2024-03-02T11:45:35;13.10;;;6.18;;
60314;SDS011;46159;42.550;21.904;2024-03-02T11:48:05;14.18;;;5.80;;
60314;SDS011;46159;42.550;21.904;2024-03-02T11:53:17;15.68;;;6.82;;
60314;SDS011;46159;42.550;21.904;2024-03-02T11:55:43;14.15;;;6.15;;
60314;SDS011;46159;42.550;21.904;2024-03-02T11:58:14;11.60;;;6.00;;
60314;SDS011;46159;42.550;21.904;2024-03-02T12:00:59;12.50;;;6.60;;
60314;SDS011;46159;42.550;21.904;2024-03-02T12:03:25;15.43;;;7.95;;
60314;SDS011;46159;42.550;21.904;2024-03-02T12:05:53;17.83;;;9.40;;
60314;SDS011;46159;42.550;21.904;2024-03-02T12:08:20;18.50;;;9.63;;
60314;SDS011;46159;42.550;21.904;2024-03-02T12:13:54;18.75;;;11.05;;
60314;SDS011;46159;42.550;21.904;2024-03-02T12:16:23;13.43;;;6.40;;
60314;SDS011;46159;42.550;21.904;2024-03-02T12:21:54;19.50;;;11.77;;
60314;SDS011;46159;42.550;21.904;2024-03-02T12:24:22;23.08;;;14.15;;
60314;SDS011;46159;42.550;21.904;2024-03-02T12:26:49;38.78;;;22.80;;
60314;SDS011;46159;42.550;21.904;2024-03-02T12:32:38;28.15;;;16.80;;
60314;SDS011;46159;42.550;21.904;2024-03-02T12:35:05;21.73;;;9.23;;
60314;SDS011;46159;42.550;21.904;2024-03-02T12:37:41;30.90;;;16.20;;
60314;SDS011;46159;42.550;21.904;2024-03-02T12:40:09;36.55;;;20.10;;
60314;SDS011;46159;42.550;21.904;2024-03-02T12:42:36;31.15;;;21.30;;
60314;SDS011;46159;42.550;21.904;2024-03-02T12:45:04;23.23;;;12.32;;
60314;SDS011;46159;42.550;21.904;2024-03-02T12:47:33;20.60;;;9.55;;
60314;SDS011;46159;42.550;21.904;2024-03-02T12:50:01;22.13;;;11.43;;
60314;SDS011;46159;42.550;21.904;2024-03-02T12:52:28;31.10;;;17.50;;
60314;SDS011;46159;42.550;21.904;2024-03-02T12:54:55;27.55;;;15.88;;
60314;SDS011;46159;42.550;21.904;2024-03-02T12:57:34;17.98;;;7.90;;
60314;SDS011;46159;42.550;21.904;2024-03-02T13:00:03;17.25;;;8.10;;
60314;SDS011;46159;42.550;21.904;2024-03-02T13:02:41;22.92;;;9.35;;
60314;SDS011;46159;42.550;21.904;2024-03-02T13:05:08;15.23;;;6.38;;
60314;SDS011;46159;42.550;21.904;2024-03-02T13:07:54;19.15;;;7.38;;
60314;SDS011;46159;42.550;21.904;2024-03-02T13:10:21;17.63;;;7.15;;
60314;SDS011;46159;42.550;21.904;2024-03-02T13:12:48;14.32;;;5.32;;
60314;SDS011;46159;42.550;21.904;2024-03-02T13:15:14;27.38;;;14.55;;
60314;SDS011;46159;42.550;21.904;2024-03-02T13:17:41;18.55;;;9.57;;
60314;SDS011;46159;42.550;21.904;2024-03-02T13:20:11;16.00;;;5.80;;
60314;SDS011;46159;42.550;21.904;2024-03-02T13:22:55;13.98;;;6.85;;
60314;SDS011;46159;42.550;21.904;2024-03-02T13:25:23;14.77;;;4.63;;
60314;SDS011;46159;42.550;21.904;2024-03-02T13:28:06;21.85;;;11.63;;
60314;SDS011;46159;42.550;21.904;2024-03-02T13:30:33;25.45;;;12.85;;
60314;SDS011;46159;42.550;21.904;2024-03-02T13:33:00;21.55;;;12.48;;
60314;SDS011;46159;42.550;21.904;2024-03-02T13:35:30;29.27;;;15.80;;
60314;SDS011;46159;42.550;21.904;2024-03-02T13:37:59;26.95;;;15.43;;
60314;SDS011;46159;42.550;21.904;2024-03-02T13:40:26;24.55;;;15.52;;
60314;SDS011;46159;42.550;21.904;2024-03-02T13:42:54;21.15;;;12.88;;
60314;SDS011;46159;42.550;21.904;2024-03-02T13:48:18;22.73;;;14.70;;
60314;SDS011;46159;42.550;21.904;2024-03-02T13:50:46;26.15;;;17.08;;
60314;SDS011;46159;42.550;21.904;2024-03-02T13:53:13;17.17;;;7.55;;
60314;SDS011;46159;42.550;21.904;2024-03-02T13:55:43;19.35;;;10.68;;
60314;SDS011;46159;42.550;21.904;2024-03-02T13:58:13;15.50;;;7.38;;
60314;SDS011;46159;42.550;21.904;2024-03-02T14:00:46;14.65;;;7.03;;
60314;SDS011;46159;42.550;21.904;2024-03-02T14:03:13;19.92;;;7.63;;
60314;SDS011;46159;42.550;21.904;2024-03-02T14:05:41;14.85;;;5.78;;
60314;SDS011;46159;42.550;21.904;2024-03-02T14:08:09;14.45;;;7.82;;
60314;SDS011;46159;42.550;21.904;2024-03-02T14:10:36;16.23;;;7.50;;
60314;SDS011;46159;42.550;21.904;2024-03-02T14:13:03;13.40;;;6.93;;
60314;SDS011;46159;42.550;21.904;2024-03-02T14:15:33;14.50;;;6.32;;
60314;SDS011;46159;42.550;21.904;2024-03-02T14:18:07;14.20;;;5.78;;
60314;SDS011;46159;42.550;21.904;2024-03-02T14:23:56;16.58;;;8.40;;
60314;SDS011;46159;42.550;21.904;2024-03-02T14:26:24;12.88;;;6.22;;
60314;SDS011;46159;42.550;21.904;2024-03-02T14:28:52;13.98;;;7.03;;
60314;SDS011;46159;42.550;21.904;2024-03-02T14:31:51;12.40;;;5.45;;
60314;SDS011;46159;42.550;21.904;2024-03-02T14:34:22;11.18;;;5.00;;
60314;SDS011;46159;42.550;21.904;2024-03-02T14:36:51;14.82;;;5.30;;
60314;SDS011;46159;42.550;21.904;2024-03-02T14:39:18;14.60;;;7.38;;
60314;SDS011;46159;42.550;21.904;2024-03-02T14:41:46;17.30;;;6.20;;
60314;SDS011;46159;42.550;21.904;2024-03-02T14:44:14;16.77;;;6.68;;
60314;SDS011;46159;42.550;21.904;2024-03-02T14:46:41;13.95;;;6.40;;
60314;SDS011;46159;42.550;21.904;2024-03-02T14:49:09;17.55;;;7.70;;
60314;SDS011;46159;42.550;21.904;2024-03-02T14:51:39;16.75;;;6.90;;
60314;SDS011;46159;42.550;21.904;2024-03-02T14:54:05;16.23;;;7.32;;
60314;SDS011;46159;42.550;21.904;2024-03-02T14:56:32;18.50;;;7.70;;
60314;SDS011;46159;42.550;21.904;2024-03-02T14:59:01;17.55;;;7.32;;
60314;SDS011;46159;42.550;21.904;2024-03-02T15:01:29;17.25;;;7.00;;
60314;SDS011;46159;42.550;21.904;2024-03-02T15:03:56;16.10;;;7.43;;
60314;SDS011;46159;42.550;21.904;2024-03-02T15:06:24;17.73;;;5.80;;
60314;SDS011;46159;42.550;21.904;2024-03-02T15:08:50;19.67;;;7.80;;
60314;SDS011;46159;42.550;21.904;2024-03-02T15:11:17;16.30;;;8.35;;